sensor_id;sensor_type;location;lat;lon;timestamp;pressure;altitude;pressure_sealevel;temperature;humidity
23223;BME280;11780;13.904;100.620;2023-03-25T01:18:44;101055.69;;;31.37;72.48
23223;BME280;11780;13.904;100.620;2023-03-25T01:21:15;101068.41;;;31.47;72.05
23223;BME280;11780;13.904;100.620;2023-03-25T01:23:46;101070.69;;;31.54;71.82
23223;BME280;11780;13.904;100.620;2023-03-25T01:26:31;101073.13;;;31.55;71.83
23223;BME280;11780;13.904;100.620;2023-03-25T01:29:04;101068.59;;;31.59;71.67
23223;BME280;11780;13.904;100.620;2023-03-25T01:31:34;101073.16;;;31.64;71.19
23223;BME280;11780;13.904;100.620;2023-03-25T01:34:04;101074.00;;;31.65;70.99
23223;BME280;11780;13.904;100.620;2023-03-25T01:36:36;101082.78;;;31.67;70.70
23223;BME280;11780;13.904;100.620;2023-03-25T01:39:09;101078.53;;;31.69;70.61
23223;BME280;11780;13.904;100.620;2023-03-25T01:41:39;101079.56;;;31.73;70.48
23223;BME280;11780;13.904;100.620;2023-03-25T01:46:53;101088.53;;;31.79;70.17
23223;BME280;11780;13.904;100.620;2023-03-25T01:49:27;101094.06;;;31.79;70.15
23223;BME280;11780;13.904;100.620;2023-03-25T01:52:04;101102.03;;;31.81;70.21
23223;BME280;11780;13.904;100.620;2023-03-25T01:54:36;101104.16;;;31.84;70.11
23223;BME280;11780;13.904;100.620;2023-03-25T01:57:26;101108.22;;;31.86;69.84
23223;BME280;11780;13.904;100.620;2023-03-25T01:59:57;101104.66;;;31.86;69.69
23223;BME280;11780;13.904;100.620;2023-03-25T02:02:27;101096.84;;;31.88;69.85
23223;BME280;11780;13.904;100.620;2023-03-25T02:05:33;101104.19;;;31.93;69.97
23223;BME280;11780;13.904;100.620;2023-03-25T02:08:23;101108.06;;;31.92;70.14
23223;BME280;11780;13.904;100.620;2023-03-25T02:11:28;101106.94;;;31.93;70.16
23223;BME280;11780;13.904;100.620;2023-03-25T02:14:02;101114.09;;;31.94;70.64
23223;BME280;11780;13.904;100.620;2023-03-25T02:28:24;101114.63;;;32.04;69.73
23223;BME280;11780;13.904;100.620;2023-03-25T02:34:33;101114.28;;;32.06;69.76
23223;BME280;11780;13.904;100.620;2023-03-25T02:40:08;101127.47;;;32.09;69.87
23223;BME280;11780;13.904;100.620;2023-03-25T02:42:52;101113.66;;;32.09;69.69
23223;BME280;11780;13.904;100.620;2023-03-25T02:45:31;101113.00;;;32.12;69.44
23223;BME280;11780;13.904;100.620;2023-03-25T02:48:15;101114.13;;;32.11;69.33
23223;BME280;11780;13.904;100.620;2023-03-25T02:50:55;101111.88;;;32.13;69.41
23223;BME280;11780;13.904;100.620;2023-03-25T02:53:33;101116.25;;;32.14;69.56
23223;BME280;11780;13.904;100.620;2023-03-25T02:56:11;101112.66;;;32.14;69.18
23223;BME280;11780;13.904;100.620;2023-03-25T02:58:46;101113.16;;;32.16;69.31
23223;BME280;11780;13.904;100.620;2023-03-25T03:01:18;101115.13;;;32.15;68.94
23223;BME280;11780;13.904;100.620;2023-03-25T03:03:53;101112.03;;;32.17;69.11
23223;BME280;11780;13.904;100.620;2023-03-25T03:06:24;101115.59;;;32.17;68.85
23223;BME280;11780;13.904;100.620;2023-03-25T03:09:56;101123.91;;;32.17;69.16
23223;BME280;11780;13.904;100.620;2023-03-25T03:12:57;101123.44;;;32.15;68.81
23223;BME280;11780;13.904;100.620;2023-03-25T03:15:48;101123.09;;;32.17;68.46
23223;BME280;11780;13.904;100.620;2023-03-25T03:19:27;101129.13;;;32.19;68.25
23223;BME280;11780;13.904;100.620;2023-03-25T03:21:44;101123.59;;;32.19;68.62
23223;BME280;11780;13.904;100.620;2023-03-25T03:24:40;101116.09;;;32.19;68.33
23223;BME280;11780;13.904;100.620;2023-03-25T03:27:18;101120.47;;;32.20;68.42
23223;BME280;11780;13.904;100.620;2023-03-25T03:29:56;101116.59;;;32.22;68.48
23223;BME280;11780;13.904;100.620;2023-03-25T03:32:36;101119.34;;;32.22;68.30
23223;BME280;11780;13.904;100.620;2023-03-25T03:35:33;101109.91;;;32.23;68.31
23223;BME280;11780;13.904;100.620;2023-03-25T03:38:10;101104.38;;;32.23;67.97
23223;BME280;11780;13.904;100.620;2023-03-25T03:40:48;101103.25;;;32.24;68.27
23223;BME280;11780;13.904;100.620;2023-03-25T03:43:39;101095.72;;;32.24;68.01
23223;BME280;11780;13.904;100.620;2023-03-25T03:46:19;101096.06;;;32.23;67.73
23223;BME280;11780;13.904;100.620;2023-03-25T03:48:54;101098.03;;;32.22;68.19
23223;BME280;11780;13.904;100.620;2023-03-25T03:51:35;101097.38;;;32.25;67.68
23223;BME280;11780;13.904;100.620;2023-03-25T03:55:02;101099.34;;;32.25;67.56
23223;BME280;11780;13.904;100.620;2023-03-25T03:57:15;101101.00;;;32.26;67.77
23223;BME280;11780;13.904;100.620;2023-03-25T04:00:16;101090.72;;;32.26;67.26
23223;BME280;11780;13.904;100.620;2023-03-25T04:02:51;101091.56;;;32.27;67.54
23223;BME280;11780;13.904;100.620;2023-03-25T04:05:26;101081.63;;;32.26;67.01
23223;BME280;11780;13.904;100.620;2023-03-25T04:08:24;101082.09;;;32.28;67.39
23223;BME280;11780;13.904;100.620;2023-03-25T04:11:01;101074.44;;;32.33;66.68
23223;BME280;11780;13.904;100.620;2023-03-25T04:13:39;101065.81;;;32.35;66.23
23223;BME280;11780;13.904;100.620;2023-03-25T04:16:12;101068.91;;;32.42;66.27
23223;BME280;11780;13.904;100.620;2023-03-25T04:18:42;101064.66;;;32.45;65.66
23223;BME280;11780;13.904;100.620;2023-03-25T04:21:32;101057.34;;;32.58;65.25
23223;BME280;11780;13.904;100.620;2023-03-25T04:24:02;101052.72;;;32.71;64.43
23223;BME280;11780;13.904;100.620;2023-03-25T04:26:36;101056.16;;;32.85;64.10
23223;BME280;11780;13.904;100.620;2023-03-25T04:29:07;101041.16;;;32.77;64.14
23223;BME280;11780;13.904;100.620;2023-03-25T04:31:38;101047.19;;;32.88;63.95
23223;BME280;11780;13.904;100.620;2023-03-25T04:34:33;101041.00;;;32.83;63.97
23223;BME280;11780;13.904;100.620;2023-03-25T04:37:04;101026.63;;;32.89;64.13
23223;BME280;11780;13.904;100.620;2023-03-25T04:39:34;101032.53;;;32.88;63.97
23223;BME280;11780;13.904;100.620;2023-03-25T04:42:23;101032.34;;;32.93;63.67
23223;BME280;11780;13.904;100.620;2023-03-25T04:45:28;101018.94;;;32.95;63.51
23223;BME280;11780;13.904;100.620;2023-03-25T04:48:26;101016.66;;;32.97;63.32
23223;BME280;11780;13.904;100.620;2023-03-25T04:51:00;101019.25;;;33.02;63.16
23223;BME280;11780;13.904;100.620;2023-03-25T04:53:32;101012.53;;;33.12;62.59
23223;BME280;11780;13.904;100.620;2023-03-25T04:56:18;101003.41;;;33.12;62.46
23223;BME280;11780;13.904;100.620;2023-03-25T04:58:48;101001.94;;;33.14;62.11
23223;BME280;11780;13.904;100.620;2023-03-25T05:01:36;100999.97;;;33.15;62.40
23223;BME280;11780;13.904;100.620;2023-03-25T05:04:12;100993.75;;;33.18;62.30
23223;BME280;11780;13.904;100.620;2023-03-25T05:06:47;100987.50;;;33.30;62.11
23223;BME280;11780;13.904;100.620;2023-03-25T05:09:20;100983.44;;;33.27;62.07
23223;BME280;11780;13.904;100.620;2023-03-25T05:11:54;100982.16;;;33.24;62.14
23223;BME280;11780;13.904;100.620;2023-03-25T05:14:24;100972.06;;;33.20;62.34
23223;BME280;11780;13.904;100.620;2023-03-25T05:16:54;100976.25;;;33.26;62.30
23223;BME280;11780;13.904;100.620;2023-03-25T05:19:28;100956.75;;;33.14;62.41
23223;BME280;11780;13.904;100.620;2023-03-25T05:21:58;100960.97;;;33.20;62.52
23223;BME280;11780;13.904;100.620;2023-03-25T05:24:31;100949.91;;;33.20;62.44
23223;BME280;11780;13.904;100.620;2023-03-25T05:27:01;100941.84;;;33.27;62.40
23223;BME280;11780;13.904;100.620;2023-03-25T05:29:32;100939.25;;;33.31;62.24
23223;BME280;11780;13.904;100.620;2023-03-25T05:32:02;100932.53;;;33.32;62.01
23223;BME280;11780;13.904;100.620;2023-03-25T05:34:34;100927.78;;;33.41;62.16
23223;BME280;11780;13.904;100.620;2023-03-25T05:37:04;100927.09;;;33.44;61.81
23223;BME280;11780;13.904;100.620;2023-03-25T05:39:34;100925.72;;;33.50;61.41
23223;BME280;11780;13.904;100.620;2023-03-25T05:42:06;100922.28;;;33.53;61.36
23223;BME280;11780;13.904;100.620;2023-03-25T05:44:40;100909.91;;;33.51;61.29
23223;BME280;11780;13.904;100.620;2023-03-25T05:47:22;100909.56;;;33.52;61.27
23223;BME280;11780;13.904;100.620;2023-03-25T05:49:53;100904.84;;;33.53;61.07
23223;BME280;11780;13.904;100.620;2023-03-25T05:52:23;100894.56;;;33.53;61.17
23223;BME280;11780;13.904;100.620;2023-03-25T05:54:54;100886.25;;;33.53;61.15
23223;BME280;11780;13.904;100.620;2023-03-25T05:57:42;100889.00;;;33.53;61.35
23223;BME280;11780;13.904;100.620;2023-03-25T06:00:14;100877.50;;;33.64;60.93
23223;BME280;11780;13.904;100.620;2023-03-25T06:02:50;100873.97;;;33.76;60.59
23223;BME280;11780;13.904;100.620;2023-03-25T06:05:21;100875.13;;;33.75;60.38
23223;BME280;11780;13.904;100.620;2023-03-25T06:07:52;100868.28;;;33.72;60.76
23223;BME280;11780;13.904;100.620;2023-03-25T06:10:24;100863.09;;;33.70;60.56
23223;BME280;11780;13.904;100.620;2023-03-25T06:12:55;100852.81;;;33.71;60.53
23223;BME280;11780;13.904;100.620;2023-03-25T06:15:25;100854.34;;;33.81;60.38
23223;BME280;11780;13.904;100.620;2023-03-25T06:18:02;100844.19;;;33.85;60.65
23223;BME280;11780;13.904;100.620;2023-03-25T06:20:33;100840.06;;;33.91;60.71
23223;BME280;11780;13.904;100.620;2023-03-25T06:23:03;100834.34;;;33.88;60.70
23223;BME280;11780;13.904;100.620;2023-03-25T06:25:54;100821.78;;;33.90;60.83
23223;BME280;11780;13.904;100.620;2023-03-25T06:28:25;100816.81;;;33.96;60.84
23223;BME280;11780;13.904;100.620;2023-03-25T06:30:55;100806.19;;;33.98;60.54
23223;BME280;11780;13.904;100.620;2023-03-25T06:33:25;100809.31;;;33.96;60.17
23223;BME280;11780;13.904;100.620;2023-03-25T06:36:11;100795.66;;;33.91;60.45
23223;BME280;11780;13.904;100.620;2023-03-25T06:38:42;100785.16;;;33.97;60.52
23223;BME280;11780;13.904;100.620;2023-03-25T06:41:15;100787.44;;;33.95;59.99
23223;BME280;11780;13.904;100.620;2023-03-25T06:43:56;100776.09;;;33.88;60.20
23223;BME280;11780;13.904;100.620;2023-03-25T06:46:38;100775.25;;;33.87;60.30
23223;BME280;11780;13.904;100.620;2023-03-25T06:49:29;100762.56;;;33.86;60.32
23223;BME280;11780;13.904;100.620;2023-03-25T06:52:00;100772.50;;;33.87;60.36
23223;BME280;11780;13.904;100.620;2023-03-25T06:54:30;100767.13;;;33.91;60.11
23223;BME280;11780;13.904;100.620;2023-03-25T06:57:01;100757.06;;;33.98;59.95
23223;BME280;11780;13.904;100.620;2023-03-25T06:59:31;100754.88;;;33.92;60.09
23223;BME280;11780;13.904;100.620;2023-03-25T07:02:01;100755.91;;;33.99;59.86
23223;BME280;11780;13.904;100.620;2023-03-25T07:04:32;100749.66;;;34.03;59.40
23223;BME280;11780;13.904;100.620;2023-03-25T07:07:02;100748.63;;;34.07;59.53
23223;BME280;11780;13.904;100.620;2023-03-25T07:09:33;100752.56;;;34.19;59.01
23223;BME280;11780;13.904;100.620;2023-03-25T07:12:03;100739.72;;;34.26;58.74
23223;BME280;11780;13.904;100.620;2023-03-25T07:14:35;100741.81;;;34.17;58.77
23223;BME280;11780;13.904;100.620;2023-03-25T07:17:06;100730.13;;;34.24;58.65
23223;BME280;11780;13.904;100.620;2023-03-25T07:19:37;100722.97;;;34.23;58.01
23223;BME280;11780;13.904;100.620;2023-03-25T07:22:22;100719.81;;;34.24;58.07
23223;BME280;11780;13.904;100.620;2023-03-25T07:25:11;100715.44;;;34.23;58.08
23223;BME280;11780;13.904;100.620;2023-03-25T07:27:41;100707.91;;;34.24;58.05
23223;BME280;11780;13.904;100.620;2023-03-25T07:30:16;100709.28;;;34.30;57.64
23223;BME280;11780;13.904;100.620;2023-03-25T07:32:46;100707.91;;;34.24;57.72
23223;BME280;11780;13.904;100.620;2023-03-25T07:35:35;100701.91;;;34.22;58.00
23223;BME280;11780;13.904;100.620;2023-03-25T07:38:05;100693.69;;;34.25;57.80
23223;BME280;11780;13.904;100.620;2023-03-25T07:40:36;100690.44;;;34.23;57.92
23223;BME280;11780;13.904;100.620;2023-03-25T07:43:06;100686.75;;;34.31;57.80
23223;BME280;11780;13.904;100.620;2023-03-25T07:46:01;100690.78;;;34.34;57.46
23223;BME280;11780;13.904;100.620;2023-03-25T07:48:50;100683.84;;;34.40;56.96
23223;BME280;11780;13.904;100.620;2023-03-25T07:51:21;100685.09;;;34.55;56.70
23223;BME280;11780;13.904;100.620;2023-03-25T07:53:52;100669.69;;;34.58;56.49
23223;BME280;11780;13.904;100.620;2023-03-25T07:56:31;100664.59;;;34.60;56.64
23223;BME280;11780;13.904;100.620;2023-03-25T07:59:20;100664.25;;;34.61;56.44
23223;BME280;11780;13.904;100.620;2023-03-25T08:01:50;100657.41;;;34.59;56.44
23223;BME280;11780;13.904;100.620;2023-03-25T08:04:36;100660.09;;;34.55;56.27
23223;BME280;11780;13.904;100.620;2023-03-25T08:07:06;100643.91;;;34.57;56.13
23223;BME280;11780;13.904;100.620;2023-03-25T08:09:36;100642.03;;;34.61;56.09
23223;BME280;11780;13.904;100.620;2023-03-25T08:12:07;100637.72;;;34.64;56.07
23223;BME280;11780;13.904;100.620;2023-03-25T08:14:38;100635.50;;;34.70;55.99
23223;BME280;11780;13.904;100.620;2023-03-25T08:17:08;100630.31;;;34.68;55.95
23223;BME280;11780;13.904;100.620;2023-03-25T08:19:38;100629.03;;;34.66;56.21
23223;BME280;11780;13.904;100.620;2023-03-25T08:22:08;100619.34;;;34.59;56.61
23223;BME280;11780;13.904;100.620;2023-03-25T08:24:39;100623.75;;;34.60;56.62
23223;BME280;11780;13.904;100.620;2023-03-25T08:27:28;100626.53;;;34.60;56.47
23223;BME280;11780;13.904;100.620;2023-03-25T08:30:16;100619.22;;;34.68;55.86
23223;BME280;11780;13.904;100.620;2023-03-25T08:32:47;100624.41;;;34.70;55.54
23223;BME280;11780;13.904;100.620;2023-03-25T08:35:23;100625.41;;;34.78;54.97
23223;BME280;11780;13.904;100.620;2023-03-25T08:37:53;100620.22;;;34.76;54.85
23223;BME280;11780;13.904;100.620;2023-03-25T08:40:24;100615.59;;;34.68;55.22
23223;BME280;11780;13.904;100.620;2023-03-25T08:42:54;100601.25;;;34.66;55.01
23223;BME280;11780;13.904;100.620;2023-03-25T08:45:24;100609.44;;;34.74;55.43
23223;BME280;11780;13.904;100.620;2023-03-25T08:47:54;100601.09;;;34.74;55.37
23223;BME280;11780;13.904;100.620;2023-03-25T08:50:25;100599.59;;;34.77;55.12
23223;BME280;11780;13.904;100.620;2023-03-25T08:52:57;100595.22;;;34.76;54.84
23223;BME280;11780;13.904;100.620;2023-03-25T08:55:42;100591.28;;;34.77;54.74
23223;BME280;11780;13.904;100.620;2023-03-25T08:58:12;100593.34;;;34.80;54.69
23223;BME280;11780;13.904;100.620;2023-03-25T09:00:43;100588.03;;;34.75;54.81
23223;BME280;11780;13.904;100.620;2023-03-25T09:03:14;100592.16;;;34.81;54.95
23223;BME280;11780;13.904;100.620;2023-03-25T09:05:44;100585.34;;;34.79;55.12
23223;BME280;11780;13.904;100.620;2023-03-25T09:08:17;100588.50;;;34.77;54.70
23223;BME280;11780;13.904;100.620;2023-03-25T09:10:48;100589.56;;;34.72;54.94
23223;BME280;11780;13.904;100.620;2023-03-25T09:13:18;100587.13;;;34.71;54.64
23223;BME280;11780;13.904;100.620;2023-03-25T09:16:07;100585.56;;;34.57;55.12
23223;BME280;11780;13.904;100.620;2023-03-25T09:18:38;100579.75;;;34.63;54.87
23223;BME280;11780;13.904;100.620;2023-03-25T09:21:09;100584.72;;;34.69;54.36
23223;BME280;11780;13.904;100.620;2023-03-25T09:23:57;100587.81;;;34.68;54.66
23223;BME280;11780;13.904;100.620;2023-03-25T09:26:43;100585.59;;;34.73;54.39
23223;BME280;11780;13.904;100.620;2023-03-25T09:29:28;100588.75;;;34.72;54.11
23223;BME280;11780;13.904;100.620;2023-03-25T09:31:59;100587.03;;;34.67;53.76
23223;BME280;11780;13.904;100.620;2023-03-25T09:34:29;100579.41;;;34.64;53.97
23223;BME280;11780;13.904;100.620;2023-03-25T09:37:01;100581.09;;;34.69;53.72
23223;BME280;11780;13.904;100.620;2023-03-25T09:39:32;100585.41;;;34.66;53.74
23223;BME280;11780;13.904;100.620;2023-03-25T09:45:16;100590.06;;;34.62;53.51
23223;BME280;11780;13.904;100.620;2023-03-25T09:50:35;100582.72;;;34.70;52.49
23223;BME280;11780;13.904;100.620;2023-03-25T09:53:10;100584.72;;;34.69;52.51
23223;BME280;11780;13.904;100.620;2023-03-25T09:55:44;100594.22;;;34.68;52.57
23223;BME280;11780;13.904;100.620;2023-03-25T09:58:38;100592.50;;;34.64;52.62
23223;BME280;11780;13.904;100.620;2023-03-25T10:07:37;100599.00;;;34.55;54.17
23223;BME280;11780;13.904;100.620;2023-03-25T10:23:05;100594.97;;;34.53;54.48
23223;BME280;11780;13.904;100.620;2023-03-25T10:25:39;100594.59;;;34.54;54.70
23223;BME280;11780;13.904;100.620;2023-03-25T10:28:17;100594.13;;;34.52;54.98
23223;BME280;11780;13.904;100.620;2023-03-25T10:30:51;100594.50;;;34.51;55.42
23223;BME280;11780;13.904;100.620;2023-03-25T10:33:36;100592.53;;;34.51;55.42
23223;BME280;11780;13.904;100.620;2023-03-25T10:36:14;100598.69;;;34.44;55.41
23223;BME280;11780;13.904;100.620;2023-03-25T10:39:18;100597.06;;;34.43;55.66
23223;BME280;11780;13.904;100.620;2023-03-25T10:41:58;100603.91;;;34.46;55.85
23223;BME280;11780;13.904;100.620;2023-03-25T10:44:29;100603.66;;;34.39;56.10
23223;BME280;11780;13.904;100.620;2023-03-25T10:47:07;100597.63;;;34.37;56.36
23223;BME280;11780;13.904;100.620;2023-03-25T10:49:42;100604.16;;;34.28;56.75
23223;BME280;11780;13.904;100.620;2023-03-25T10:52:31;100596.63;;;34.29;56.44
23223;BME280;11780;13.904;100.620;2023-03-25T10:55:02;100601.84;;;34.30;56.40
23223;BME280;11780;13.904;100.620;2023-03-25T10:57:33;100604.63;;;34.30;56.27
23223;BME280;11780;13.904;100.620;2023-03-25T11:02:35;100606.94;;;34.28;56.52
23223;BME280;11780;13.904;100.620;2023-03-25T11:05:06;100607.53;;;34.22;56.43
23223;BME280;11780;13.904;100.620;2023-03-25T11:07:56;100599.66;;;34.11;56.37
23223;BME280;11780;13.904;100.620;2023-03-25T11:10:48;100612.28;;;34.09;55.88
23223;BME280;11780;13.904;100.620;2023-03-25T11:13:27;100602.56;;;34.15;56.46
23223;BME280;11780;13.904;100.620;2023-03-25T11:16:01;100608.13;;;34.15;56.17
23223;BME280;11780;13.904;100.620;2023-03-25T11:18:35;100612.63;;;34.20;56.49
23223;BME280;11780;13.904;100.620;2023-03-25T11:21:13;100611.78;;;34.19;56.45
23223;BME280;11780;13.904;100.620;2023-03-25T11:23:47;100605.81;;;34.17;56.52
23223;BME280;11780;13.904;100.620;2023-03-25T11:26:21;100610.31;;;34.09;56.65
23223;BME280;11780;13.904;100.620;2023-03-25T11:29:00;100619.91;;;34.12;56.44
23223;BME280;11780;13.904;100.620;2023-03-25T11:31:35;100623.28;;;34.05;56.88
23223;BME280;11780;13.904;100.620;2023-03-25T11:34:20;100633.09;;;34.03;57.19
23223;BME280;11780;13.904;100.620;2023-03-25T11:36:54;100631.94;;;34.04;57.30
23223;BME280;11780;13.904;100.620;2023-03-25T11:39:33;100625.81;;;33.98;57.09
23223;BME280;11780;13.904;100.620;2023-03-25T11:44:53;100630.91;;;33.96;56.94
23223;BME280;11780;13.904;100.620;2023-03-25T11:47:39;100626.63;;;33.86;56.77
23223;BME280;11780;13.904;100.620;2023-03-25T11:50:20;100620.38;;;33.89;57.26
23223;BME280;11780;13.904;100.620;2023-03-25T11:52:58;100623.63;;;33.91;57.10
23223;BME280;11780;13.904;100.620;2023-03-25T11:55:42;100619.09;;;33.86;57.26
23223;BME280;11780;13.904;100.620;2023-03-25T11:58:17;100615.28;;;33.79;57.56
23223;BME280;11780;13.904;100.620;2023-03-25T12:00:51;100618.41;;;33.77;57.87
23223;BME280;11780;13.904;100.620;2023-03-25T12:03:31;100624.75;;;33.78;57.82
23223;BME280;11780;13.904;100.620;2023-03-25T12:06:05;100629.72;;;33.84;57.92
23223;BME280;11780;13.904;100.620;2023-03-25T12:08:50;100633.91;;;33.78;57.99
23223;BME280;11780;13.904;100.620;2023-03-25T12:22:34;100656.28;;;33.48;58.92
23223;BME280;11780;13.904;100.620;2023-03-25T12:25:20;100657.22;;;33.52;58.70
23223;BME280;11780;13.904;100.620;2023-03-25T12:30:55;100674.69;;;33.53;58.74
23223;BME280;11780;13.904;100.620;2023-03-25T12:53:52;100717.22;;;33.02;62.38
23223;BME280;11780;13.904;100.620;2023-03-25T13:07:51;100732.91;;;32.98;62.49
23223;BME280;11780;13.904;100.620;2023-03-25T13:10:40;100735.19;;;32.96;62.69
23223;BME280;11780;13.904;100.620;2023-03-25T13:13:20;100730.47;;;32.97;63.00
23223;BME280;11780;13.904;100.620;2023-03-25T13:16:07;100735.88;;;32.93;63.13
23223;BME280;11780;13.904;100.620;2023-03-25T13:19:16;100746.81;;;32.89;63.38
23223;BME280;11780;13.904;100.620;2023-03-25T13:21:42;100748.00;;;32.79;63.85
23223;BME280;11780;13.904;100.620;2023-03-25T13:24:35;100755.50;;;32.79;63.97
23223;BME280;11780;13.904;100.620;2023-03-25T13:27:10;100753.28;;;32.72;64.36
23223;BME280;11780;13.904;100.620;2023-03-25T13:30:33;100762.25;;;32.69;64.89
23223;BME280;11780;13.904;100.620;2023-03-25T13:33:15;100755.91;;;32.69;64.88
23223;BME280;11780;13.904;100.620;2023-03-25T13:38:47;100771.28;;;32.57;65.68
23223;BME280;11780;13.904;100.620;2023-03-25T13:41:37;100775.00;;;32.61;65.30
23223;BME280;11780;13.904;100.620;2023-03-25T13:44:15;100781.69;;;32.60;65.07
23223;BME280;11780;13.904;100.620;2023-03-25T13:49:40;100793.34;;;32.45;65.38
23223;BME280;11780;13.904;100.620;2023-03-25T13:52:35;100795.19;;;32.32;65.69
23223;BME280;11780;13.904;100.620;2023-03-25T13:55:19;100787.09;;;32.27;65.68
23223;BME280;11780;13.904;100.620;2023-03-25T14:10:45;100804.28;;;32.41;65.70
23223;BME280;11780;13.904;100.620;2023-03-25T14:13:40;100810.91;;;32.49;65.72
23223;BME280;11780;13.904;100.620;2023-03-25T14:16:16;100806.47;;;32.57;65.77
23223;BME280;11780;13.904;100.620;2023-03-25T14:18:55;100811.63;;;32.67;65.31
23223;BME280;11780;13.904;100.620;2023-03-25T14:21:39;100816.63;;;32.74;65.21
23223;BME280;11780;13.904;100.620;2023-03-25T14:24:46;100823.28;;;32.82;65.00
23223;BME280;11780;13.904;100.620;2023-03-25T14:27:34;100825.09;;;32.77;65.21
23223;BME280;11780;13.904;100.620;2023-03-25T14:30:18;100833.91;;;32.71;65.36
23223;BME280;11780;13.904;100.620;2023-03-25T14:32:53;100841.59;;;32.65;65.72
23223;BME280;11780;13.904;100.620;2023-03-25T14:40:56;100859.88;;;32.96;65.60
23223;BME280;11780;13.904;100.620;2023-03-25T14:43:38;100861.44;;;33.06;65.62
23223;BME280;11780;13.904;100.620;2023-03-25T14:46:19;100862.06;;;33.12;65.48
23223;BME280;11780;13.904;100.620;2023-03-25T14:48:51;100863.69;;;33.13;65.73
23223;BME280;11780;13.904;100.620;2023-03-25T14:56:35;100877.53;;;33.13;65.83
23223;BME280;11780;13.904;100.620;2023-03-25T14:59:14;100884.84;;;33.17;65.70
23223;BME280;11780;13.904;100.620;2023-03-25T15:01:46;100885.00;;;33.21;65.61
23223;BME280;11780;13.904;100.620;2023-03-25T15:04:24;100892.00;;;33.18;65.60
23223;BME280;11780;13.904;100.620;2023-03-25T15:07:00;100889.03;;;33.23;65.49
23223;BME280;11780;13.904;100.620;2023-03-25T15:09:31;100896.88;;;33.21;65.80
23223;BME280;11780;13.904;100.620;2023-03-25T15:12:03;100888.91;;;33.20;65.74
23223;BME280;11780;13.904;100.620;2023-03-25T15:14:37;100900.47;;;33.22;65.76
23223;BME280;11780;13.904;100.620;2023-03-25T15:17:46;100901.47;;;33.17;65.46
23223;BME280;11780;13.904;100.620;2023-03-25T15:25:50;100911.09;;;33.20;65.09
23223;BME280;11780;13.904;100.620;2023-03-25T15:56:08;100930.19;;;33.13;65.40
23223;BME280;11780;13.904;100.620;2023-03-25T15:58:46;100934.81;;;33.08;65.47
23223;BME280;11780;13.904;100.620;2023-03-25T16:01:27;100925.84;;;33.03;65.41
23223;BME280;11780;13.904;100.620;2023-03-25T16:05:04;100929.94;;;33.05;65.11
23223;BME280;11780;13.904;100.620;2023-03-25T16:07:16;100933.22;;;32.99;65.39
23223;BME280;11780;13.904;100.620;2023-03-25T16:09:49;100926.72;;;32.94;65.39
23223;BME280;11780;13.904;100.620;2023-03-25T16:12:42;100922.81;;;32.95;65.31
23223;BME280;11780;13.904;100.620;2023-03-25T16:15:30;100919.25;;;32.86;65.64
23223;BME280;11780;13.904;100.620;2023-03-25T16:18:04;100913.56;;;32.83;65.72
23223;BME280;11780;13.904;100.620;2023-03-25T16:20:36;100913.06;;;32.80;65.90
23223;BME280;11780;13.904;100.620;2023-03-25T16:23:07;100919.75;;;32.79;66.01
23223;BME280;11780;13.904;100.620;2023-03-25T16:25:47;100913.75;;;32.77;65.84
23223;BME280;11780;13.904;100.620;2023-03-25T16:28:40;100916.03;;;32.75;66.25
23223;BME280;11780;13.904;100.620;2023-03-25T16:31:31;100911.94;;;32.73;65.97
23223;BME280;11780;13.904;100.620;2023-03-25T16:34:10;100911.63;;;32.74;66.04
23223;BME280;11780;13.904;100.620;2023-03-25T16:36:44;100914.72;;;32.73;66.09
23223;BME280;11780;13.904;100.620;2023-03-25T16:39:16;100917.84;;;32.71;66.06
23223;BME280;11780;13.904;100.620;2023-03-25T16:41:52;100913.44;;;32.70;66.27
23223;BME280;11780;13.904;100.620;2023-03-25T16:44:28;100909.88;;;32.70;66.35
23223;BME280;11780;13.904;100.620;2023-03-25T16:46:59;100916.88;;;32.67;66.25
23223;BME280;11780;13.904;100.620;2023-03-25T16:49:35;100905.78;;;32.67;66.26
23223;BME280;11780;13.904;100.620;2023-03-25T16:52:12;100916.88;;;32.67;66.26
23223;BME280;11780;13.904;100.620;2023-03-25T16:55:12;100913.31;;;32.67;66.18
23223;BME280;11780;13.904;100.620;2023-03-25T16:57:45;100908.06;;;32.65;66.11
23223;BME280;11780;13.904;100.620;2023-03-25T17:00:39;100901.59;;;32.61;66.18
23223;BME280;11780;13.904;100.620;2023-03-25T17:03:13;100908.41;;;32.63;66.17
23223;BME280;11780;13.904;100.620;2023-03-25T17:05:51;100889.03;;;32.63;66.18
23223;BME280;11780;13.904;100.620;2023-03-25T17:08:23;100899.28;;;32.63;66.33
23223;BME280;11780;13.904;100.620;2023-03-25T17:10:56;100891.66;;;32.60;66.30
23223;BME280;11780;13.904;100.620;2023-03-25T17:13:38;100897.69;;;32.62;66.26
23223;BME280;11780;13.904;100.620;2023-03-25T17:16:32;100892.16;;;32.62;66.21
23223;BME280;11780;13.904;100.620;2023-03-25T17:19:04;100894.09;;;32.61;66.35
23223;BME280;11780;13.904;100.620;2023-03-25T17:21:35;100882.22;;;32.61;66.52
23223;BME280;11780;13.904;100.620;2023-03-25T17:24:21;100885.44;;;32.63;66.28